Terminal Aerodrome Forecast
Issued by NWS Atlanta, GA

Home | Current Version | Previous Version | Text Only | Print | Product List | Glossary On
Versions: 1 2 3 4 5 6 7 8 9 10 11 12 13 14 15 16
133
FTUS42 KFFC 221723
TAFMCN
TAF
KMCN 221723Z 2218/2318 09007KT P6SM VCSH OVC035
      TEMPO 2218/2222 4SM SHRA BKN025
     FM222200 09007KT P6SM VCSH BKN025
     FM230200 08003KT P6SM BKN015
     FM230600 06003KT 5SM BR OVC007
     FM230800 06005KT 3SM BR OVC004
     FM231500 07007KT P6SM BKN012=

USA.gov is the U.S. government's official web portal to all federal, state and local government web resources and services.